sensor_id;sensor_type;location;lat;lon;timestamp;P1;durP1;ratioP1;P2;durP2;ratioP2
9689;SDS011;4884;42.614;23.340;2023-03-23T00:02:18;13.53;;;7.30;;
9689;SDS011;4884;42.614;23.340;2023-03-23T00:04:44;11.20;;;7.77;;
9689;SDS011;4884;42.614;23.340;2023-03-23T00:07:10;9.07;;;6.63;;
9689;SDS011;4884;42.614;23.340;2023-03-23T00:09:37;6.80;;;5.40;;
9689;SDS011;4884;42.614;23.340;2023-03-23T00:12:06;7.43;;;5.50;;
9689;SDS011;4884;42.614;23.340;2023-03-23T00:14:32;7.43;;;5.87;;
9689;SDS011;4884;42.614;23.340;2023-03-23T00:17:07;6.63;;;6.00;;
9689;SDS011;4884;42.614;23.340;2023-03-23T00:19:36;7.00;;;6.30;;
9689;SDS011;4884;42.614;23.340;2023-03-23T00:22:10;11.73;;;7.60;;
9689;SDS011;4884;42.614;23.340;2023-03-23T00:24:39;12.10;;;7.70;;
9689;SDS011;4884;42.614;23.340;2023-03-23T00:27:05;18.90;;;9.33;;
9689;SDS011;4884;42.614;23.340;2023-03-23T00:29:31;17.17;;;8.60;;
9689;SDS011;4884;42.614;23.340;2023-03-23T00:31:57;12.70;;;8.53;;
9689;SDS011;4884;42.614;23.340;2023-03-23T00:34:23;15.33;;;8.80;;
9689;SDS011;4884;42.614;23.340;2023-03-23T00:36:50;13.90;;;9.03;;
9689;SDS011;4884;42.614;23.340;2023-03-23T00:39:18;14.27;;;7.93;;
9689;SDS011;4884;42.614;23.340;2023-03-23T00:41:44;18.40;;;10.07;;
9689;SDS011;4884;42.614;23.340;2023-03-23T00:44:10;20.40;;;10.23;;
9689;SDS011;4884;42.614;23.340;2023-03-23T00:46:41;17.57;;;9.67;;
9689;SDS011;4884;42.614;23.340;2023-03-23T00:49:13;19.20;;;10.50;;
9689;SDS011;4884;42.614;23.340;2023-03-23T00:51:39;23.10;;;11.53;;
9689;SDS011;4884;42.614;23.340;2023-03-23T00:54:06;19.13;;;11.20;;
9689;SDS011;4884;42.614;23.340;2023-03-23T00:56:32;22.53;;;11.13;;
9689;SDS011;4884;42.614;23.340;2023-03-23T00:58:57;26.73;;;12.97;;
9689;SDS011;4884;42.614;23.340;2023-03-23T01:01:22;25.40;;;13.23;;
9689;SDS011;4884;42.614;23.340;2023-03-23T01:03:48;27.80;;;15.40;;
9689;SDS011;4884;42.614;23.340;2023-03-23T01:06:14;31.20;;;14.97;;
9689;SDS011;4884;42.614;23.340;2023-03-23T01:08:40;27.77;;;13.27;;
9689;SDS011;4884;42.614;23.340;2023-03-23T01:11:10;34.27;;;15.80;;
9689;SDS011;4884;42.614;23.340;2023-03-23T01:13:41;25.13;;;14.43;;
9689;SDS011;4884;42.614;23.340;2023-03-23T01:16:07;25.37;;;14.23;;
9689;SDS011;4884;42.614;23.340;2023-03-23T01:18:33;28.40;;;17.07;;
9689;SDS011;4884;42.614;23.340;2023-03-23T01:21:03;33.77;;;21.30;;
9689;SDS011;4884;42.614;23.340;2023-03-23T01:23:30;41.00;;;24.93;;
9689;SDS011;4884;42.614;23.340;2023-03-23T01:25:57;46.03;;;26.53;;
9689;SDS011;4884;42.614;23.340;2023-03-23T01:28:23;39.90;;;26.00;;
9689;SDS011;4884;42.614;23.340;2023-03-23T01:30:49;47.43;;;27.67;;
9689;SDS011;4884;42.614;23.340;2023-03-23T01:33:14;46.60;;;25.03;;
9689;SDS011;4884;42.614;23.340;2023-03-23T01:35:40;32.23;;;17.10;;
9689;SDS011;4884;42.614;23.340;2023-03-23T01:38:05;26.00;;;14.97;;
9689;SDS011;4884;42.614;23.340;2023-03-23T01:40:30;16.67;;;10.43;;
9689;SDS011;4884;42.614;23.340;2023-03-23T01:42:56;15.17;;;9.60;;
9689;SDS011;4884;42.614;23.340;2023-03-23T01:45:26;12.80;;;9.53;;
9689;SDS011;4884;42.614;23.340;2023-03-23T01:47:54;22.63;;;12.87;;
9689;SDS011;4884;42.614;23.340;2023-03-23T01:50:23;17.53;;;12.73;;
9689;SDS011;4884;42.614;23.340;2023-03-23T01:52:50;16.73;;;10.60;;
9689;SDS011;4884;42.614;23.340;2023-03-23T01:55:17;20.90;;;13.47;;
9689;SDS011;4884;42.614;23.340;2023-03-23T01:57:43;27.50;;;14.63;;
9689;SDS011;4884;42.614;23.340;2023-03-23T02:00:08;26.80;;;14.83;;
9689;SDS011;4884;42.614;23.340;2023-03-23T02:02:44;26.97;;;14.70;;
9689;SDS011;4884;42.614;23.340;2023-03-23T02:05:14;26.10;;;12.93;;
9689;SDS011;4884;42.614;23.340;2023-03-23T02:07:42;30.63;;;14.80;;
9689;SDS011;4884;42.614;23.340;2023-03-23T02:10:09;31.27;;;15.30;;
9689;SDS011;4884;42.614;23.340;2023-03-23T02:12:34;35.67;;;14.30;;
9689;SDS011;4884;42.614;23.340;2023-03-23T02:15:00;34.50;;;14.53;;
9689;SDS011;4884;42.614;23.340;2023-03-23T02:17:32;35.67;;;15.33;;
9689;SDS011;4884;42.614;23.340;2023-03-23T02:23:02;32.13;;;15.63;;
9689;SDS011;4884;42.614;23.340;2023-03-23T02:34:50;27.87;;;14.27;;
9689;SDS011;4884;42.614;23.340;2023-03-23T02:37:20;35.60;;;16.33;;
9689;SDS011;4884;42.614;23.340;2023-03-23T02:39:49;37.03;;;16.10;;
9689;SDS011;4884;42.614;23.340;2023-03-23T02:42:17;28.73;;;15.13;;
9689;SDS011;4884;42.614;23.340;2023-03-23T02:44:45;32.93;;;15.33;;
9689;SDS011;4884;42.614;23.340;2023-03-23T02:47:22;26.37;;;13.63;;
9689;SDS011;4884;42.614;23.340;2023-03-23T02:49:50;39.40;;;18.00;;
9689;SDS011;4884;42.614;23.340;2023-03-23T02:52:18;52.27;;;16.73;;
9689;SDS011;4884;42.614;23.340;2023-03-23T02:54:46;47.77;;;16.40;;
9689;SDS011;4884;42.614;23.340;2023-03-23T02:57:12;39.03;;;15.97;;
9689;SDS011;4884;42.614;23.340;2023-03-23T02:59:38;17.30;;;12.10;;
9689;SDS011;4884;42.614;23.340;2023-03-23T03:02:17;21.20;;;11.77;;
9689;SDS011;4884;42.614;23.340;2023-03-23T03:07:49;14.30;;;9.23;;
9689;SDS011;4884;42.614;23.340;2023-03-23T03:15:57;14.03;;;9.07;;
9689;SDS011;4884;42.614;23.340;2023-03-23T03:18:25;11.23;;;8.97;;
9689;SDS011;4884;42.614;23.340;2023-03-23T03:20:54;12.63;;;9.93;;
9689;SDS011;4884;42.614;23.340;2023-03-23T03:23:24;14.90;;;10.13;;
9689;SDS011;4884;42.614;23.340;2023-03-23T03:25:50;14.53;;;10.50;;
9689;SDS011;4884;42.614;23.340;2023-03-23T03:28:18;10.90;;;9.10;;
9689;SDS011;4884;42.614;23.340;2023-03-23T03:30:47;13.03;;;9.63;;
9689;SDS011;4884;42.614;23.340;2023-03-23T03:33:14;11.90;;;9.30;;
9689;SDS011;4884;42.614;23.340;2023-03-23T03:35:40;11.33;;;9.23;;
9689;SDS011;4884;42.614;23.340;2023-03-23T03:38:08;12.80;;;8.97;;
9689;SDS011;4884;42.614;23.340;2023-03-23T03:40:34;10.97;;;8.67;;
9689;SDS011;4884;42.614;23.340;2023-03-23T03:43:00;13.73;;;9.60;;
9689;SDS011;4884;42.614;23.340;2023-03-23T03:45:25;12.70;;;9.53;;
9689;SDS011;4884;42.614;23.340;2023-03-23T03:47:51;12.23;;;9.27;;
9689;SDS011;4884;42.614;23.340;2023-03-23T03:50:16;14.10;;;10.43;;
9689;SDS011;4884;42.614;23.340;2023-03-23T03:52:41;14.17;;;9.70;;
9689;SDS011;4884;42.614;23.340;2023-03-23T03:55:07;12.43;;;9.73;;
9689;SDS011;4884;42.614;23.340;2023-03-23T03:57:34;13.70;;;9.60;;
9689;SDS011;4884;42.614;23.340;2023-03-23T03:59:59;12.17;;;8.67;;
9689;SDS011;4884;42.614;23.340;2023-03-23T04:02:25;11.23;;;8.80;;
9689;SDS011;4884;42.614;23.340;2023-03-23T04:04:50;15.13;;;11.57;;
9689;SDS011;4884;42.614;23.340;2023-03-23T04:07:19;12.23;;;10.43;;
9689;SDS011;4884;42.614;23.340;2023-03-23T04:09:46;14.27;;;10.87;;
9689;SDS011;4884;42.614;23.340;2023-03-23T04:12:12;12.77;;;10.00;;
9689;SDS011;4884;42.614;23.340;2023-03-23T04:14:38;16.23;;;13.83;;
9689;SDS011;4884;42.614;23.340;2023-03-23T04:17:04;12.07;;;9.40;;
9689;SDS011;4884;42.614;23.340;2023-03-23T04:19:29;13.50;;;10.87;;
9689;SDS011;4884;42.614;23.340;2023-03-23T04:21:58;25.60;;;20.43;;
9689;SDS011;4884;42.614;23.340;2023-03-23T04:24:24;70.10;;;44.87;;
9689;SDS011;4884;42.614;23.340;2023-03-23T04:26:49;29.90;;;21.00;;
9689;SDS011;4884;42.614;23.340;2023-03-23T04:29:17;64.80;;;45.37;;
9689;SDS011;4884;42.614;23.340;2023-03-23T04:31:43;45.17;;;32.20;;
9689;SDS011;4884;42.614;23.340;2023-03-23T04:34:10;22.13;;;14.50;;
9689;SDS011;4884;42.614;23.340;2023-03-23T04:36:38;12.50;;;11.13;;
9689;SDS011;4884;42.614;23.340;2023-03-23T04:39:04;22.50;;;16.90;;
9689;SDS011;4884;42.614;23.340;2023-03-23T04:41:32;53.23;;;33.00;;
9689;SDS011;4884;42.614;23.340;2023-03-23T04:43:57;32.97;;;23.53;;
9689;SDS011;4884;42.614;23.340;2023-03-23T04:46:27;26.90;;;17.93;;
9689;SDS011;4884;42.614;23.340;2023-03-23T04:48:53;22.10;;;12.50;;
9689;SDS011;4884;42.614;23.340;2023-03-23T04:51:19;21.10;;;14.37;;
9689;SDS011;4884;42.614;23.340;2023-03-23T04:53:45;32.73;;;24.43;;
9689;SDS011;4884;42.614;23.340;2023-03-23T04:56:10;23.60;;;19.80;;
9689;SDS011;4884;42.614;23.340;2023-03-23T04:58:38;21.37;;;14.80;;
9689;SDS011;4884;42.614;23.340;2023-03-23T05:01:04;18.07;;;12.57;;
9689;SDS011;4884;42.614;23.340;2023-03-23T05:03:30;21.73;;;13.70;;
9689;SDS011;4884;42.614;23.340;2023-03-23T05:05:55;44.77;;;28.00;;
9689;SDS011;4884;42.614;23.340;2023-03-23T05:08:21;41.03;;;27.13;;
9689;SDS011;4884;42.614;23.340;2023-03-23T05:10:55;35.20;;;23.30;;
9689;SDS011;4884;42.614;23.340;2023-03-23T05:13:21;20.90;;;15.90;;
9689;SDS011;4884;42.614;23.340;2023-03-23T05:15:47;17.10;;;12.23;;
9689;SDS011;4884;42.614;23.340;2023-03-23T05:18:13;15.50;;;10.80;;
9689;SDS011;4884;42.614;23.340;2023-03-23T05:20:39;16.03;;;13.87;;
9689;SDS011;4884;42.614;23.340;2023-03-23T05:23:06;17.77;;;12.83;;
9689;SDS011;4884;42.614;23.340;2023-03-23T05:25:32;15.77;;;12.87;;
9689;SDS011;4884;42.614;23.340;2023-03-23T05:28:02;21.73;;;16.20;;
9689;SDS011;4884;42.614;23.340;2023-03-23T05:30:28;20.77;;;14.60;;
9689;SDS011;4884;42.614;23.340;2023-03-23T05:32:54;21.47;;;13.93;;
9689;SDS011;4884;42.614;23.340;2023-03-23T05:35:20;20.73;;;15.63;;
9689;SDS011;4884;42.614;23.340;2023-03-23T05:37:46;17.30;;;14.27;;
9689;SDS011;4884;42.614;23.340;2023-03-23T05:40:12;21.40;;;14.50;;
9689;SDS011;4884;42.614;23.340;2023-03-23T05:42:38;14.33;;;12.63;;
9689;SDS011;4884;42.614;23.340;2023-03-23T05:45:06;18.50;;;14.90;;
9689;SDS011;4884;42.614;23.340;2023-03-23T05:47:33;17.07;;;12.60;;
9689;SDS011;4884;42.614;23.340;2023-03-23T05:49:59;12.17;;;9.77;;
9689;SDS011;4884;42.614;23.340;2023-03-23T05:52:25;15.57;;;13.80;;
9689;SDS011;4884;42.614;23.340;2023-03-23T05:54:51;30.27;;;22.00;;
9689;SDS011;4884;42.614;23.340;2023-03-23T05:57:17;31.80;;;22.73;;
9689;SDS011;4884;42.614;23.340;2023-03-23T05:59:43;42.83;;;31.87;;
9689;SDS011;4884;42.614;23.340;2023-03-23T06:02:09;44.60;;;31.80;;
9689;SDS011;4884;42.614;23.340;2023-03-23T06:04:35;47.20;;;32.70;;
9689;SDS011;4884;42.614;23.340;2023-03-23T06:07:03;38.93;;;30.27;;
9689;SDS011;4884;42.614;23.340;2023-03-23T06:09:28;36.10;;;24.87;;
9689;SDS011;4884;42.614;23.340;2023-03-23T06:11:54;34.43;;;26.53;;
9689;SDS011;4884;42.614;23.340;2023-03-23T06:14:19;37.13;;;26.70;;
9689;SDS011;4884;42.614;23.340;2023-03-23T06:16:46;35.97;;;28.33;;
9689;SDS011;4884;42.614;23.340;2023-03-23T06:19:12;37.53;;;28.50;;
9689;SDS011;4884;42.614;23.340;2023-03-23T06:21:37;37.47;;;27.90;;
9689;SDS011;4884;42.614;23.340;2023-03-23T06:24:03;41.07;;;28.10;;
9689;SDS011;4884;42.614;23.340;2023-03-23T06:26:37;38.23;;;27.10;;
9689;SDS011;4884;42.614;23.340;2023-03-23T06:29:04;38.23;;;25.17;;
9689;SDS011;4884;42.614;23.340;2023-03-23T06:31:36;40.37;;;25.93;;
9689;SDS011;4884;42.614;23.340;2023-03-23T06:34:02;31.10;;;24.63;;
9689;SDS011;4884;42.614;23.340;2023-03-23T06:36:28;35.20;;;27.00;;
9689;SDS011;4884;42.614;23.340;2023-03-23T06:38:53;37.67;;;28.93;;
9689;SDS011;4884;42.614;23.340;2023-03-23T06:41:20;36.37;;;28.93;;
9689;SDS011;4884;42.614;23.340;2023-03-23T06:43:46;44.77;;;31.73;;
9689;SDS011;4884;42.614;23.340;2023-03-23T06:46:12;37.90;;;29.07;;
9689;SDS011;4884;42.614;23.340;2023-03-23T06:48:37;37.50;;;30.30;;
9689;SDS011;4884;42.614;23.340;2023-03-23T06:51:03;32.73;;;27.60;;
9689;SDS011;4884;42.614;23.340;2023-03-23T06:53:29;31.30;;;23.47;;
9689;SDS011;4884;42.614;23.340;2023-03-23T06:55:54;37.80;;;28.50;;
9689;SDS011;4884;42.614;23.340;2023-03-23T06:58:20;38.50;;;27.83;;
9689;SDS011;4884;42.614;23.340;2023-03-23T07:00:46;36.33;;;27.83;;
9689;SDS011;4884;42.614;23.340;2023-03-23T07:03:11;41.37;;;29.50;;
9689;SDS011;4884;42.614;23.340;2023-03-23T07:05:37;32.03;;;25.70;;
9689;SDS011;4884;42.614;23.340;2023-03-23T07:08:03;34.33;;;27.37;;
9689;SDS011;4884;42.614;23.340;2023-03-23T07:10:29;28.43;;;24.50;;
9689;SDS011;4884;42.614;23.340;2023-03-23T07:12:54;30.83;;;24.90;;
9689;SDS011;4884;42.614;23.340;2023-03-23T07:15:20;29.17;;;22.87;;
9689;SDS011;4884;42.614;23.340;2023-03-23T07:17:46;28.70;;;21.73;;
9689;SDS011;4884;42.614;23.340;2023-03-23T07:20:12;32.73;;;21.90;;
9689;SDS011;4884;42.614;23.340;2023-03-23T07:22:38;30.17;;;22.23;;
9689;SDS011;4884;42.614;23.340;2023-03-23T07:25:04;25.47;;;21.77;;
9689;SDS011;4884;42.614;23.340;2023-03-23T07:27:30;25.37;;;21.20;;
9689;SDS011;4884;42.614;23.340;2023-03-23T07:29:55;22.97;;;20.47;;
9689;SDS011;4884;42.614;23.340;2023-03-23T07:32:22;28.73;;;22.97;;
9689;SDS011;4884;42.614;23.340;2023-03-23T07:34:47;25.57;;;22.60;;
9689;SDS011;4884;42.614;23.340;2023-03-23T07:37:13;23.73;;;20.30;;
9689;SDS011;4884;42.614;23.340;2023-03-23T07:39:38;21.67;;;16.93;;
9689;SDS011;4884;42.614;23.340;2023-03-23T07:42:05;27.43;;;20.73;;
9689;SDS011;4884;42.614;23.340;2023-03-23T07:44:32;27.37;;;20.10;;
9689;SDS011;4884;42.614;23.340;2023-03-23T07:46:57;22.80;;;20.23;;
9689;SDS011;4884;42.614;23.340;2023-03-23T07:49:23;24.63;;;18.90;;
9689;SDS011;4884;42.614;23.340;2023-03-23T07:51:48;19.73;;;17.47;;
9689;SDS011;4884;42.614;23.340;2023-03-23T07:54:14;22.10;;;17.57;;
9689;SDS011;4884;42.614;23.340;2023-03-23T07:56:41;29.60;;;16.93;;
9689;SDS011;4884;42.614;23.340;2023-03-23T07:59:06;18.50;;;15.67;;
9689;SDS011;4884;42.614;23.340;2023-03-23T08:01:32;20.83;;;18.60;;
9689;SDS011;4884;42.614;23.340;2023-03-23T08:03:58;18.03;;;16.00;;
9689;SDS011;4884;42.614;23.340;2023-03-23T08:06:24;18.57;;;15.20;;
9689;SDS011;4884;42.614;23.340;2023-03-23T08:08:50;16.10;;;14.27;;
9689;SDS011;4884;42.614;23.340;2023-03-23T08:11:16;17.07;;;15.10;;
9689;SDS011;4884;42.614;23.340;2023-03-23T08:13:43;18.67;;;16.37;;
9689;SDS011;4884;42.614;23.340;2023-03-23T08:16:09;18.60;;;16.70;;
9689;SDS011;4884;42.614;23.340;2023-03-23T08:18:35;18.00;;;16.10;;
9689;SDS011;4884;42.614;23.340;2023-03-23T08:21:03;13.60;;;12.30;;
9689;SDS011;4884;42.614;23.340;2023-03-23T08:23:34;16.60;;;14.30;;
9689;SDS011;4884;42.614;23.340;2023-03-23T08:26:01;20.00;;;16.20;;
9689;SDS011;4884;42.614;23.340;2023-03-23T08:28:28;17.90;;;16.03;;
9689;SDS011;4884;42.614;23.340;2023-03-23T08:30:53;18.80;;;16.77;;
9689;SDS011;4884;42.614;23.340;2023-03-23T08:33:19;15.27;;;13.77;;
9689;SDS011;4884;42.614;23.340;2023-03-23T08:35:53;13.77;;;12.20;;
9689;SDS011;4884;42.614;23.340;2023-03-23T08:38:22;9.10;;;8.30;;
9689;SDS011;4884;42.614;23.340;2023-03-23T08:40:48;9.70;;;8.47;;
9689;SDS011;4884;42.614;23.340;2023-03-23T08:43:15;10.07;;;9.17;;
9689;SDS011;4884;42.614;23.340;2023-03-23T08:45:40;8.10;;;7.30;;
9689;SDS011;4884;42.614;23.340;2023-03-23T08:48:06;7.93;;;7.20;;
9689;SDS011;4884;42.614;23.340;2023-03-23T08:50:32;8.90;;;8.00;;
9689;SDS011;4884;42.614;23.340;2023-03-23T08:52:58;11.67;;;8.07;;
9689;SDS011;4884;42.614;23.340;2023-03-23T08:55:23;11.07;;;10.17;;
9689;SDS011;4884;42.614;23.340;2023-03-23T08:57:49;9.97;;;9.07;;
9689;SDS011;4884;42.614;23.340;2023-03-23T09:00:16;10.23;;;9.30;;
9689;SDS011;4884;42.614;23.340;2023-03-23T09:02:48;9.57;;;8.40;;
9689;SDS011;4884;42.614;23.340;2023-03-23T09:05:18;8.87;;;7.97;;
9689;SDS011;4884;42.614;23.340;2023-03-23T09:07:47;8.50;;;7.57;;
9689;SDS011;4884;42.614;23.340;2023-03-23T09:10:14;8.60;;;7.50;;
9689;SDS011;4884;42.614;23.340;2023-03-23T09:12:40;8.20;;;7.40;;
9689;SDS011;4884;42.614;23.340;2023-03-23T09:15:06;8.47;;;7.67;;
9689;SDS011;4884;42.614;23.340;2023-03-23T09:17:36;8.80;;;8.00;;
9689;SDS011;4884;42.614;23.340;2023-03-23T09:20:05;8.43;;;7.67;;
9689;SDS011;4884;42.614;23.340;2023-03-23T09:22:41;8.53;;;7.57;;
9689;SDS011;4884;42.614;23.340;2023-03-23T09:25:09;7.93;;;7.13;;
9689;SDS011;4884;42.614;23.340;2023-03-23T09:27:35;8.73;;;7.90;;
9689;SDS011;4884;42.614;23.340;2023-03-23T09:30:05;10.90;;;8.40;;
9689;SDS011;4884;42.614;23.340;2023-03-23T09:32:33;7.80;;;7.10;;
9689;SDS011;4884;42.614;23.340;2023-03-23T09:35:00;8.30;;;7.57;;
9689;SDS011;4884;42.614;23.340;2023-03-23T09:37:25;7.90;;;7.20;;
9689;SDS011;4884;42.614;23.340;2023-03-23T09:39:51;7.77;;;7.07;;
9689;SDS011;4884;42.614;23.340;2023-03-23T09:50:09;8.60;;;7.80;;
9689;SDS011;4884;42.614;23.340;2023-03-23T09:52:40;9.27;;;8.37;;
9689;SDS011;4884;42.614;23.340;2023-03-23T09:55:14;9.67;;;8.73;;
9689;SDS011;4884;42.614;23.340;2023-03-23T09:57:47;10.63;;;8.70;;
9689;SDS011;4884;42.614;23.340;2023-03-23T10:00:33;9.70;;;8.70;;
9689;SDS011;4884;42.614;23.340;2023-03-23T10:03:14;11.03;;;8.40;;
9689;SDS011;4884;42.614;23.340;2023-03-23T10:05:42;9.43;;;8.30;;
9689;SDS011;4884;42.614;23.340;2023-03-23T10:08:13;9.07;;;8.17;;
9689;SDS011;4884;42.614;23.340;2023-03-23T10:16:19;9.67;;;8.37;;
9689;SDS011;4884;42.614;23.340;2023-03-23T10:21:52;9.77;;;8.87;;
9689;SDS011;4884;42.614;23.340;2023-03-23T10:24:24;9.20;;;8.40;;
9689;SDS011;4884;42.614;23.340;2023-03-23T10:29:58;7.57;;;6.83;;
9689;SDS011;4884;42.614;23.340;2023-03-23T10:35:03;7.53;;;6.93;;
9689;SDS011;4884;42.614;23.340;2023-03-23T10:37:38;11.33;;;7.17;;
9689;SDS011;4884;42.614;23.340;2023-03-23T10:40:12;7.90;;;7.20;;
9689;SDS011;4884;42.614;23.340;2023-03-23T10:42:40;8.20;;;7.47;;
9689;SDS011;4884;42.614;23.340;2023-03-23T10:48:14;7.87;;;7.07;;
9689;SDS011;4884;42.614;23.340;2023-03-23T10:50:41;7.30;;;6.60;;
9689;SDS011;4884;42.614;23.340;2023-03-23T10:53:16;7.27;;;6.57;;
9689;SDS011;4884;42.614;23.340;2023-03-23T10:55:43;7.90;;;7.00;;
9689;SDS011;4884;42.614;23.340;2023-03-23T10:58:11;8.93;;;7.13;;
9689;SDS011;4884;42.614;23.340;2023-03-23T11:00:42;8.00;;;7.20;;
9689;SDS011;4884;42.614;23.340;2023-03-23T11:05:40;8.17;;;7.37;;
9689;SDS011;4884;42.614;23.340;2023-03-23T11:08:14;7.97;;;7.17;;
9689;SDS011;4884;42.614;23.340;2023-03-23T11:10:42;7.80;;;7.00;;
9689;SDS011;4884;42.614;23.340;2023-03-23T11:13:14;7.67;;;6.97;;
9689;SDS011;4884;42.614;23.340;2023-03-23T11:15:42;7.03;;;6.33;;
9689;SDS011;4884;42.614;23.340;2023-03-23T11:18:13;8.50;;;7.47;;
9689;SDS011;4884;42.614;23.340;2023-03-23T11:20:46;8.67;;;7.87;;
9689;SDS011;4884;42.614;23.340;2023-03-23T11:23:24;8.63;;;7.77;;
9689;SDS011;4884;42.614;23.340;2023-03-23T11:25:56;9.07;;;8.27;;
9689;SDS011;4884;42.614;23.340;2023-03-23T11:28:31;9.07;;;8.27;;
9689;SDS011;4884;42.614;23.340;2023-03-23T11:30:59;8.77;;;7.97;;
9689;SDS011;4884;42.614;23.340;2023-03-23T11:33:30;9.67;;;7.93;;
9689;SDS011;4884;42.614;23.340;2023-03-23T11:36:03;8.77;;;7.97;;
9689;SDS011;4884;42.614;23.340;2023-03-23T11:38:31;9.50;;;8.50;;
9689;SDS011;4884;42.614;23.340;2023-03-23T11:40:58;9.40;;;8.40;;
9689;SDS011;4884;42.614;23.340;2023-03-23T11:43:24;8.60;;;7.77;;
9689;SDS011;4884;42.614;23.340;2023-03-23T11:48:26;8.63;;;7.80;;
9689;SDS011;4884;42.614;23.340;2023-03-23T11:51:03;7.90;;;7.20;;
9689;SDS011;4884;42.614;23.340;2023-03-23T11:56:23;9.43;;;7.20;;
9689;SDS011;4884;42.614;23.340;2023-03-23T11:58:50;8.03;;;7.23;;
9689;SDS011;4884;42.614;23.340;2023-03-23T12:14:50;7.87;;;7.17;;
9689;SDS011;4884;42.614;23.340;2023-03-23T12:28:11;8.53;;;6.80;;
9689;SDS011;4884;42.614;23.340;2023-03-23T12:38:56;8.05;;;7.38;;
9689;SDS011;4884;42.614;23.340;2023-03-23T12:44:16;8.48;;;7.68;;
9689;SDS011;4884;42.614;23.340;2023-03-23T12:46:47;8.77;;;7.97;;
9689;SDS011;4884;42.614;23.340;2023-03-23T12:49:39;7.80;;;7.10;;
9689;SDS011;4884;42.614;23.340;2023-03-23T12:57:20;16.27;;;14.67;;
9689;SDS011;4884;42.614;23.340;2023-03-23T12:59:57;9.10;;;8.20;;
9689;SDS011;4884;42.614;23.340;2023-03-23T13:02:25;8.20;;;7.40;;
9689;SDS011;4884;42.614;23.340;2023-03-23T13:05:00;8.40;;;7.33;;
9689;SDS011;4884;42.614;23.340;2023-03-23T13:07:31;9.80;;;7.90;;
9689;SDS011;4884;42.614;23.340;2023-03-23T13:10:09;7.73;;;6.73;;
9689;SDS011;4884;42.614;23.340;2023-03-23T13:12:49;8.63;;;7.77;;
9689;SDS011;4884;42.614;23.340;2023-03-23T13:20:18;8.17;;;7.07;;
9689;SDS011;4884;42.614;23.340;2023-03-23T13:31:25;9.60;;;5.83;;
9689;SDS011;4884;42.614;23.340;2023-03-23T13:34:01;7.00;;;6.20;;
9689;SDS011;4884;42.614;23.340;2023-03-23T13:36:30;6.20;;;5.60;;
9689;SDS011;4884;42.614;23.340;2023-03-23T13:38:57;7.13;;;6.53;;
9689;SDS011;4884;42.614;23.340;2023-03-23T13:41:24;7.07;;;6.47;;
9689;SDS011;4884;42.614;23.340;2023-03-23T13:43:51;6.90;;;6.30;;
9689;SDS011;4884;42.614;23.340;2023-03-23T13:48:49;6.90;;;6.30;;
9689;SDS011;4884;42.614;23.340;2023-03-23T13:51:26;7.90;;;7.20;;
9689;SDS011;4884;42.614;23.340;2023-03-23T13:56:52;7.50;;;6.67;;
9689;SDS011;4884;42.614;23.340;2023-03-23T13:59:30;10.33;;;6.40;;
9689;SDS011;4884;42.614;23.340;2023-03-23T14:07:56;7.20;;;6.60;;
9689;SDS011;4884;42.614;23.340;2023-03-23T14:10:36;7.43;;;6.63;;
9689;SDS011;4884;42.614;23.340;2023-03-23T14:13:05;7.40;;;6.73;;
9689;SDS011;4884;42.614;23.340;2023-03-23T14:15:43;8.83;;;5.90;;
9689;SDS011;4884;42.614;23.340;2023-03-23T14:18:18;7.40;;;6.70;;
9689;SDS011;4884;42.614;23.340;2023-03-23T14:20:45;7.27;;;6.60;;
9689;SDS011;4884;42.614;23.340;2023-03-23T14:23:14;7.57;;;6.77;;
9689;SDS011;4884;42.614;23.340;2023-03-23T14:25:41;7.70;;;7.03;;
9689;SDS011;4884;42.614;23.340;2023-03-23T14:28:16;8.03;;;7.07;;
9689;SDS011;4884;42.614;23.340;2023-03-23T14:30:43;7.30;;;6.67;;
9689;SDS011;4884;42.614;23.340;2023-03-23T14:33:09;7.50;;;6.70;;
9689;SDS011;4884;42.614;23.340;2023-03-23T14:35:36;7.17;;;6.50;;
9689;SDS011;4884;42.614;23.340;2023-03-23T14:38:03;7.77;;;7.07;;
9689;SDS011;4884;42.614;23.340;2023-03-23T14:40:29;8.00;;;7.30;;
9689;SDS011;4884;42.614;23.340;2023-03-23T14:42:55;8.43;;;7.53;;
9689;SDS011;4884;42.614;23.340;2023-03-23T14:45:22;8.80;;;8.00;;
9689;SDS011;4884;42.614;23.340;2023-03-23T14:47:50;7.27;;;6.57;;
9689;SDS011;4884;42.614;23.340;2023-03-23T14:50:26;7.93;;;7.13;;
9689;SDS011;4884;42.614;23.340;2023-03-23T14:52:55;7.93;;;7.33;;
9689;SDS011;4884;42.614;23.340;2023-03-23T14:55:22;8.70;;;6.17;;
9689;SDS011;4884;42.614;23.340;2023-03-23T14:57:48;8.23;;;7.43;;
9689;SDS011;4884;42.614;23.340;2023-03-23T15:00:16;7.53;;;6.80;;
9689;SDS011;4884;42.614;23.340;2023-03-23T15:02:45;8.13;;;7.33;;
9689;SDS011;4884;42.614;23.340;2023-03-23T15:05:15;9.20;;;6.27;;
9689;SDS011;4884;42.614;23.340;2023-03-23T15:07:51;8.90;;;7.40;;
9689;SDS011;4884;42.614;23.340;2023-03-23T15:10:21;9.90;;;7.53;;
9689;SDS011;4884;42.614;23.340;2023-03-23T15:12:48;7.57;;;6.87;;
9689;SDS011;4884;42.614;23.340;2023-03-23T15:15:19;9.00;;;7.13;;
9689;SDS011;4884;42.614;23.340;2023-03-23T15:17:58;8.40;;;7.40;;
9689;SDS011;4884;42.614;23.340;2023-03-23T15:20:27;8.73;;;7.13;;
9689;SDS011;4884;42.614;23.340;2023-03-23T15:22:54;8.00;;;7.30;;
9689;SDS011;4884;42.614;23.340;2023-03-23T15:25:21;8.33;;;7.50;;
9689;SDS011;4884;42.614;23.340;2023-03-23T15:27:49;7.17;;;6.57;;
9689;SDS011;4884;42.614;23.340;2023-03-23T15:32:47;10.77;;;9.67;;
9689;SDS011;4884;42.614;23.340;2023-03-23T15:35:22;7.97;;;6.90;;
9689;SDS011;4884;42.614;23.340;2023-03-23T15:37:49;8.80;;;7.50;;
9689;SDS011;4884;42.614;23.340;2023-03-23T15:40:17;9.17;;;8.23;;
9689;SDS011;4884;42.614;23.340;2023-03-23T15:42:44;9.83;;;8.83;;
9689;SDS011;4884;42.614;23.340;2023-03-23T15:52:38;56.60;;;31.77;;
9689;SDS011;4884;42.614;23.340;2023-03-23T15:55:15;178.70;;;82.47;;
9689;SDS011;4884;42.614;23.340;2023-03-23T15:57:48;310.77;;;143.10;;
9689;SDS011;4884;42.614;23.340;2023-03-23T16:00:20;141.27;;;67.37;;
9689;SDS011;4884;42.614;23.340;2023-03-23T16:02:48;36.67;;;23.40;;
9689;SDS011;4884;42.614;23.340;2023-03-23T16:05:17;23.20;;;15.57;;
9689;SDS011;4884;42.614;23.340;2023-03-23T16:07:42;45.47;;;26.57;;
9689;SDS011;4884;42.614;23.340;2023-03-23T16:10:13;112.70;;;56.47;;
9689;SDS011;4884;42.614;23.340;2023-03-23T16:12:43;64.53;;;38.90;;
9689;SDS011;4884;42.614;23.340;2023-03-23T16:15:09;88.67;;;52.77;;
9689;SDS011;4884;42.614;23.340;2023-03-23T16:17:35;79.43;;;43.63;;
9689;SDS011;4884;42.614;23.340;2023-03-23T16:20:01;47.00;;;27.87;;
9689;SDS011;4884;42.614;23.340;2023-03-23T16:22:28;125.57;;;76.90;;
9689;SDS011;4884;42.614;23.340;2023-03-23T16:24:53;155.67;;;100.93;;
9689;SDS011;4884;42.614;23.340;2023-03-23T16:27:18;115.30;;;84.17;;
9689;SDS011;4884;42.614;23.340;2023-03-23T16:29:45;59.43;;;40.77;;
9689;SDS011;4884;42.614;23.340;2023-03-23T16:32:11;65.33;;;49.60;;
9689;SDS011;4884;42.614;23.340;2023-03-23T16:34:36;50.43;;;43.20;;
9689;SDS011;4884;42.614;23.340;2023-03-23T16:37:02;71.73;;;54.83;;
9689;SDS011;4884;42.614;23.340;2023-03-23T16:39:28;40.97;;;36.57;;
9689;SDS011;4884;42.614;23.340;2023-03-23T16:41:53;33.80;;;24.33;;
9689;SDS011;4884;42.614;23.340;2023-03-23T16:44:19;31.43;;;25.50;;
9689;SDS011;4884;42.614;23.340;2023-03-23T16:46:44;38.73;;;25.43;;
9689;SDS011;4884;42.614;23.340;2023-03-23T16:49:10;26.63;;;15.73;;
9689;SDS011;4884;42.614;23.340;2023-03-23T16:51:35;30.27;;;22.77;;
9689;SDS011;4884;42.614;23.340;2023-03-23T16:54:01;22.90;;;16.87;;
9689;SDS011;4884;42.614;23.340;2023-03-23T16:56:26;18.70;;;14.60;;
9689;SDS011;4884;42.614;23.340;2023-03-23T16:58:52;20.37;;;17.83;;
9689;SDS011;4884;42.614;23.340;2023-03-23T17:01:17;25.67;;;21.33;;